Time;durP1;ratioP1;P1;durP2;ratioP2;P2;SDS_P1;SDS_P2;PMS_P1;PMS_P2;Temp;Humidity;BMP_temperature;BMP_pressure;BME280_temperature;BME280_humidity;BME280_pressure;Samples;Min_cycle;Max_cycle;Signal;HPM_P1;HPM_P2
2021/12/15 00:01:03;;;;;;;27.70;22.37;;;;;;;;;;6182670;28;20735;-63
2021/12/15 00:04:24;;;;;;;26.53;22.40;;;;;;;;;;6185782;28;20702;-63
2021/12/15 00:07:44;;;;;;;26.57;21.20;;;;;;;;;;6184774;28;20233;-63
2021/12/15 00:11:06;;;;;;;28.77;25.17;;;;;;;;;;6189008;28;20239;-62
2021/12/15 00:14:26;;;;;;;27.97;23.80;;;;;;;;;;6192724;28;20246;-63
2021/12/15 00:17:49;;;;;;;27.63;23.67;;;;;;;;;;6186783;28;20233;-63
2021/12/15 00:21:11;;;;;;;27.23;20.83;;;;;;;;;;6181370;28;20257;-60
2021/12/15 00:24:32;;;;;;;28.03;23.03;;;;;;;;;;6176093;28;20234;-59
2021/12/15 00:27:53;;;;;;;29.00;24.27;;;;;;;;;;6193452;28;20261;-60
2021/12/15 00:31:15;;;;;;;28.13;23.33;;;;;;;;;;6184626;28;20233;-60
2021/12/15 00:34:39;;;;;;;25.27;21.57;;;;;;;;;;6170834;28;20239;-60
2021/12/15 00:38:00;;;;;;;25.00;20.70;;;;;;;;;;6159298;28;20238;-60
2021/12/15 00:41:21;;;;;;;29.60;23.37;;;;;;;;;;6187467;28;22452;-60
2021/12/15 00:44:43;;;;;;;25.63;22.23;;;;;;;;;;6189732;28;20604;-62
2021/12/15 00:48:04;;;;;;;25.07;20.10;;;;;;;;;;6174980;28;20245;-64
2021/12/15 00:51:27;;;;;;;26.97;21.40;;;;;;;;;;6183498;28;20230;-62
2021/12/15 00:54:48;;;;;;;27.83;23.70;;;;;;;;;;6185239;28;20242;-64
2021/12/15 00:58:09;;;;;;;24.50;20.47;;;;;;;;;;6170269;28;20254;-63
2021/12/15 01:01:30;;;;;;;25.90;20.93;;;;;;;;;;6164608;28;20231;-63
2021/12/15 01:04:51;;;;;;;23.13;20.63;;;;;;;;;;6152516;28;20227;-64
2021/12/15 01:08:16;;;;;;;23.80;20.27;;;;;;;;;;6177903;28;20314;-63
2021/12/15 01:11:55;;;;;;;25.27;21.23;;;;;;;;;;6157287;28;20258;-63
2021/12/15 01:22:40;;;;;;;24.40;20.57;;;;;;;;;;6173152;28;20226;-63
2021/12/15 01:26:06;;;;;;;23.60;20.67;;;;;;;;;;6184268;28;20234;-63
2021/12/15 01:29:26;;;;;;;20.90;18.50;;;;;;;;;;6180185;28;20604;-62
2021/12/15 01:32:47;;;;;;;24.57;19.60;;;;;;;;;;6187202;28;20541;-63
2021/12/15 01:36:09;;;;;;;23.60;20.77;;;;;;;;;;6192011;28;20221;-63
2021/12/15 01:39:30;;;;;;;23.43;20.67;;;;;;;;;;6186100;28;20234;-63
2021/12/15 01:42:53;;;;;;;22.40;19.97;;;;;;;;;;6195587;28;20226;-63
2021/12/15 01:49:54;;;;;;;21.67;18.97;;;;;;;;;;6185033;28;20841;-62
2021/12/15 01:53:15;;;;;;;21.73;19.33;;;;;;;;;;6183031;28;20603;-63
2021/12/15 01:56:37;;;;;;;22.13;19.00;;;;;;;;;;6189326;28;20233;-62
2021/12/15 02:00:00;;;;;;;23.83;19.40;;;;;;;;;;6175857;28;20225;-62
2021/12/15 02:03:22;;;;;;;25.97;21.00;;;;;;;;;;6187808;28;20491;-63
2021/12/15 02:06:44;;;;;;;25.03;20.67;;;;;;;;;;6178342;28;20325;-63
2021/12/15 02:10:07;;;;;;;25.00;22.00;;;;;;;;;;6167846;28;20242;-63
2021/12/15 02:13:27;;;;;;;25.30;20.50;;;;;;;;;;6189567;28;20222;-62
2021/12/15 02:16:50;;;;;;;26.87;22.63;;;;;;;;;;6176882;28;20226;-62
2021/12/15 02:20:13;;;;;;;28.47;23.33;;;;;;;;;;6174983;28;20253;-63
2021/12/15 02:23:43;;;;;;;23.60;21.03;;;;;;;;;;6188710;28;20253;-62
2021/12/15 02:27:04;;;;;;;23.20;20.63;;;;;;;;;;6189855;28;20510;-63
2021/12/15 02:30:43;;;;;;;25.53;22.83;;;;;;;;;;6183307;28;20229;-64
2021/12/15 02:34:21;;;;;;;29.60;23.93;;;;;;;;;;6174360;28;20318;-62
2021/12/15 02:37:41;;;;;;;32.80;23.70;;;;;;;;;;6153006;28;20250;-62
2021/12/15 02:41:09;;;;;;;33.40;24.97;;;;;;;;;;6148532;28;20314;-63
2021/12/15 02:44:30;;;;;;;27.80;23.70;;;;;;;;;;6158376;28;20225;-63
2021/12/15 02:47:51;;;;;;;34.00;25.90;;;;;;;;;;6162085;28;20238;-62
2021/12/15 02:51:12;;;;;;;31.77;25.87;;;;;;;;;;6166854;28;20226;-63
2021/12/15 02:54:33;;;;;;;33.93;25.90;;;;;;;;;;6188016;28;20233;-63
2021/12/15 02:57:56;;;;;;;29.43;25.77;;;;;;;;;;6188066;28;20230;-63
2021/12/15 03:01:25;;;;;;;31.93;24.90;;;;;;;;;;6185416;28;20573;-64
2021/12/15 03:33:30;;;;;;;36.67;28.23;;;;;;;;;;6136566;28;20538;-63
2021/12/15 03:37:22;;;;;;;39.97;30.67;;;;;;;;;;6183110;28;20231;-63
2021/12/15 03:40:43;;;;;;;45.47;32.50;;;;;;;;;;6190417;28;20576;-62
2021/12/15 03:44:06;;;;;;;46.33;31.30;;;;;;;;;;6191835;28;20225;-62
2021/12/15 03:47:30;;;;;;;39.23;31.13;;;;;;;;;;6194292;28;20230;-63
2021/12/15 03:50:56;;;;;;;40.03;31.00;;;;;;;;;;6192816;28;20320;-63
2021/12/15 03:54:17;;;;;;;47.27;31.17;;;;;;;;;;6192839;28;20241;-62
2021/12/15 03:57:38;;;;;;;40.23;27.10;;;;;;;;;;6182848;28;20317;-63
2021/12/15 04:01:02;;;;;;;35.57;27.63;;;;;;;;;;6196127;28;20234;-62
2021/12/15 04:04:23;;;;;;;43.63;29.27;;;;;;;;;;6195822;28;20237;-62
2021/12/15 04:07:45;;;;;;;41.60;29.27;;;;;;;;;;6195530;28;20230;-63
2021/12/15 04:11:08;;;;;;;41.07;28.57;;;;;;;;;;6192174;28;20235;-62
2021/12/15 04:14:40;;;;;;;33.73;27.17;;;;;;;;;;6165190;28;20238;-62
2021/12/15 04:18:04;;;;;;;38.07;25.97;;;;;;;;;;6189859;28;20230;-62
2021/12/15 04:21:25;;;;;;;39.73;28.43;;;;;;;;;;6192738;28;20244;-63
2021/12/15 04:24:47;;;;;;;41.57;29.50;;;;;;;;;;6173034;28;20233;-63
2021/12/15 04:28:11;;;;;;;39.73;28.27;;;;;;;;;;6189140;28;20235;-62
2021/12/15 04:31:44;;;;;;;39.63;26.77;;;;;;;;;;6190627;28;20229;-63
2021/12/15 04:35:05;;;;;;;39.33;25.77;;;;;;;;;;6192358;28;20233;-63
2021/12/15 04:38:28;;;;;;;39.03;27.83;;;;;;;;;;6196033;28;20229;-63
2021/12/15 04:41:52;;;;;;;38.77;28.87;;;;;;;;;;6196007;28;20565;-62
2021/12/15 04:45:15;;;;;;;40.20;26.73;;;;;;;;;;6193756;28;20241;-62
2021/12/15 04:48:37;;;;;;;41.53;28.20;;;;;;;;;;6184369;28;20234;-63
2021/12/15 04:51:58;;;;;;;41.53;26.43;;;;;;;;;;6185979;28;20234;-63
2021/12/15 04:55:20;;;;;;;46.10;27.10;;;;;;;;;;6191031;28;20242;-62
2021/12/15 04:58:43;;;;;;;45.63;28.50;;;;;;;;;;6192034;28;20233;-62
2021/12/15 05:02:05;;;;;;;37.33;26.53;;;;;;;;;;6192633;28;20619;-63
2021/12/15 05:05:27;;;;;;;35.70;24.10;;;;;;;;;;6193142;28;20320;-62
2021/12/15 05:08:48;;;;;;;46.67;29.13;;;;;;;;;;6191864;28;20238;-62
2021/12/15 05:12:10;;;;;;;35.27;25.37;;;;;;;;;;6185443;28;20226;-63
2021/12/15 05:15:32;;;;;;;48.00;29.03;;;;;;;;;;6185531;28;20265;-62
2021/12/15 05:18:54;;;;;;;39.40;26.90;;;;;;;;;;6192393;28;20271;-61
2021/12/15 05:22:15;;;;;;;50.10;28.30;;;;;;;;;;6190724;28;20244;-63
2021/12/15 05:25:36;;;;;;;45.50;30.00;;;;;;;;;;6182402;28;20253;-62
2021/12/15 05:28:57;;;;;;;44.30;27.00;;;;;;;;;;6185270;28;20233;-62
2021/12/15 05:32:22;;;;;;;48.00;30.97;;;;;;;;;;6184862;28;20365;-63
2021/12/15 05:35:42;;;;;;;49.43;31.20;;;;;;;;;;6185792;28;20604;-62
2021/12/15 05:39:06;;;;;;;52.90;32.23;;;;;;;;;;6189710;28;20230;-64
2021/12/15 05:42:28;;;;;;;52.73;32.03;;;;;;;;;;6189097;28;20237;-63
2021/12/15 05:45:50;;;;;;;48.93;31.50;;;;;;;;;;6192717;28;20309;-62
2021/12/15 05:49:13;;;;;;;44.77;29.33;;;;;;;;;;6187802;28;20222;-63
2021/12/15 05:52:33;;;;;;;51.57;33.07;;;;;;;;;;6191182;28;20258;-63
2021/12/15 05:55:55;;;;;;;48.40;31.37;;;;;;;;;;6188948;28;20326;-62
2021/12/15 05:59:16;;;;;;;51.83;31.63;;;;;;;;;;6185483;28;20230;-63
2021/12/15 06:02:37;;;;;;;55.67;33.00;;;;;;;;;;6187170;28;20241;-61
2021/12/15 06:05:59;;;;;;;49.23;33.03;;;;;;;;;;6189517;28;20237;-62
2021/12/15 06:09:20;;;;;;;59.63;35.83;;;;;;;;;;6187532;28;20233;-62
2021/12/15 06:12:42;;;;;;;60.90;37.07;;;;;;;;;;6185229;28;20245;-63
2021/12/15 06:16:05;;;;;;;62.03;37.87;;;;;;;;;;6182438;28;20230;-61
2021/12/15 06:19:25;;;;;;;67.93;38.10;;;;;;;;;;6190692;28;20328;-62
2021/12/15 06:22:48;;;;;;;62.43;37.77;;;;;;;;;;6197712;28;20242;-63
2021/12/15 06:26:09;;;;;;;62.77;38.10;;;;;;;;;;6186810;28;20237;-63
2021/12/15 06:29:30;;;;;;;57.50;35.93;;;;;;;;;;6183065;28;20547;-62
2021/12/15 06:32:51;;;;;;;51.67;33.67;;;;;;;;;;6187659;28;20267;-62
2021/12/15 06:36:13;;;;;;;54.90;37.50;;;;;;;;;;6189075;28;20238;-62
2021/12/15 06:39:36;;;;;;;59.13;38.47;;;;;;;;;;6156348;28;20718;-62
2021/12/15 06:42:57;;;;;;;53.40;39.27;;;;;;;;;;6180072;28;22282;-63
2021/12/15 06:46:44;;;;;;;53.80;36.57;;;;;;;;;;6182631;28;20225;-63
2021/12/15 06:58:10;;;;;;;50.93;34.87;;;;;;;;;;6187173;28;20241;-63
2021/12/15 07:01:14;;;;;;;55.70;39.70;;;;;;;;;;6161641;28;20237;-64
2021/12/15 07:04:35;;;;;;;50.00;35.40;;;;;;;;;;6157014;28;20257;-64
2021/12/15 07:07:57;;;;;;;54.43;37.67;;;;;;;;;;6169317;28;20234;-64
2021/12/15 07:11:19;;;;;;;58.73;40.90;;;;;;;;;;6161440;28;20238;-64
2021/12/15 07:14:41;;;;;;;59.57;40.67;;;;;;;;;;6157778;28;20225;-64
2021/12/15 07:18:04;;;;;;;56.77;41.10;;;;;;;;;;6181869;28;20572;-63
2021/12/15 07:21:28;;;;;;;53.53;39.50;;;;;;;;;;6187882;28;20229;-63
2021/12/15 07:24:48;;;;;;;52.73;39.17;;;;;;;;;;6192488;28;20887;-63
2021/12/15 07:28:09;;;;;;;53.73;39.00;;;;;;;;;;6175346;28;20234;-63
2021/12/15 07:31:32;;;;;;;51.23;37.57;;;;;;;;;;6184961;28;20655;-62
2021/12/15 07:34:53;;;;;;;57.00;39.67;;;;;;;;;;6188810;28;20556;-62
2021/12/15 07:38:14;;;;;;;51.73;37.30;;;;;;;;;;6175072;28;20578;-64
2021/12/15 07:41:41;;;;;;;55.27;41.27;;;;;;;;;;6191164;28;20514;-63
2021/12/15 07:45:04;;;;;;;49.37;37.30;;;;;;;;;;6182390;28;20254;-62
2021/12/15 07:48:30;;;;;;;48.00;37.53;;;;;;;;;;6185210;28;20949;-63
2021/12/15 07:51:59;;;;;;;46.77;35.73;;;;;;;;;;6189702;28;20230;-62
2021/12/15 07:55:21;;;;;;;49.73;38.17;;;;;;;;;;6182544;28;20619;-63
2021/12/15 07:58:43;;;;;;;50.17;36.97;;;;;;;;;;6186330;28;20226;-63
2021/12/15 08:02:05;;;;;;;51.97;40.40;;;;;;;;;;6187396;28;21009;-63
2021/12/15 08:05:28;;;;;;;46.57;36.17;;;;;;;;;;6191884;28;20528;-63
2021/12/15 08:08:48;;;;;;;41.93;34.03;;;;;;;;;;6190102;28;20636;-62
2021/12/15 08:12:10;;;;;;;42.03;36.47;;;;;;;;;;6178906;28;20238;-63
2021/12/15 08:15:31;;;;;;;45.70;34.80;;;;;;;;;;6192355;28;20234;-62
2021/12/15 08:18:52;;;;;;;40.47;32.53;;;;;;;;;;6180814;28;20258;-62
2021/12/15 08:22:14;;;;;;;37.87;30.60;;;;;;;;;;6187546;28;20595;-63
2021/12/15 08:25:39;;;;;;;40.20;32.73;;;;;;;;;;6191330;28;20230;-62
2021/12/15 08:29:00;;;;;;;34.20;28.50;;;;;;;;;;6181306;28;20499;-63
2021/12/15 08:32:20;;;;;;;38.47;32.63;;;;;;;;;;6182615;28;20225;-61
2021/12/15 08:35:43;;;;;;;36.60;30.67;;;;;;;;;;6186424;28;20611;-61
2021/12/15 08:39:07;;;;;;;34.07;28.77;;;;;;;;;;6186435;28;20584;-63
2021/12/15 08:42:29;;;;;;;36.30;30.47;;;;;;;;;;6189895;28;20616;-63
2021/12/15 08:45:53;;;;;;;35.57;31.60;;;;;;;;;;6192167;28;20238;-62
2021/12/15 08:49:17;;;;;;;37.57;32.30;;;;;;;;;;6170900;28;20226;-63
2021/12/15 08:52:37;;;;;;;34.47;29.10;;;;;;;;;;6189060;28;20225;-63
2021/12/15 08:56:00;;;;;;;37.83;31.10;;;;;;;;;;6187602;28;20325;-63
2021/12/15 08:59:20;;;;;;;35.53;31.13;;;;;;;;;;6188853;28;20241;-64
2021/12/15 09:02:41;;;;;;;36.27;31.73;;;;;;;;;;6186890;28;20316;-64
2021/12/15 09:06:03;;;;;;;39.83;32.13;;;;;;;;;;6185159;28;20230;-63
2021/12/15 09:09:25;;;;;;;35.23;28.50;;;;;;;;;;6189135;28;20226;-63
2021/12/15 09:12:47;;;;;;;35.73;31.83;;;;;;;;;;6178653;28;20238;-62
2021/12/15 09:16:10;;;;;;;34.93;27.93;;;;;;;;;;6184324;28;20238;-64
2021/12/15 09:19:31;;;;;;;34.50;30.70;;;;;;;;;;6182515;28;20241;-63
2021/12/15 09:22:52;;;;;;;37.00;32.17;;;;;;;;;;6186910;28;20259;-64
2021/12/15 09:26:13;;;;;;;38.67;32.63;;;;;;;;;;6195073;28;20237;-64
2021/12/15 09:29:35;;;;;;;37.57;31.83;;;;;;;;;;6171432;28;20237;-64
2021/12/15 09:32:57;;;;;;;35.13;30.30;;;;;;;;;;6181529;28;20505;-64
2021/12/15 09:36:19;;;;;;;36.07;29.57;;;;;;;;;;6181868;28;20237;-64
2021/12/15 09:39:40;;;;;;;38.10;32.20;;;;;;;;;;6181458;28;20233;-63
2021/12/15 09:43:03;;;;;;;40.53;33.63;;;;;;;;;;6175115;28;20230;-63
2021/12/15 09:46:34;;;;;;;43.60;35.87;;;;;;;;;;6187818;28;20237;-63
2021/12/15 09:57:26;;;;;;;39.83;35.23;;;;;;;;;;6149736;28;20797;-64
2021/12/15 10:04:32;;;;;;;36.83;30.93;;;;;;;;;;6188606;28;20226;-63
2021/12/15 10:11:46;;;;;;;43.10;35.07;;;;;;;;;;6183054;28;20710;-63
2021/12/15 10:18:54;;;;;;;40.50;32.20;;;;;;;;;;6183807;28;20328;-64
2021/12/15 10:22:28;;;;;;;42.13;34.63;;;;;;;;;;6182806;28;20615;-62
2021/12/15 10:25:53;;;;;;;41.70;33.17;;;;;;;;;;6190387;28;20774;-64
2021/12/15 10:29:18;;;;;;;41.60;33.57;;;;;;;;;;6193906;28;20591;-62
2021/12/15 10:32:42;;;;;;;40.47;32.10;;;;;;;;;;6170599;28;20261;-63
2021/12/15 10:36:07;;;;;;;44.20;34.57;;;;;;;;;;6174527;28;20234;-64
2021/12/15 10:39:29;;;;;;;40.47;32.20;;;;;;;;;;6153253;28;20226;-63
2021/12/15 10:43:03;;;;;;;41.93;34.97;;;;;;;;;;6188505;28;20241;-63
2021/12/15 10:46:27;;;;;;;44.97;35.10;;;;;;;;;;6184938;28;20241;-64
2021/12/15 10:49:52;;;;;;;40.00;33.00;;;;;;;;;;6191295;28;20230;-64
2021/12/15 10:53:13;;;;;;;44.27;32.93;;;;;;;;;;6194681;28;20256;-65
2021/12/15 10:56:37;;;;;;;42.67;34.23;;;;;;;;;;6186703;28;20233;-63
2021/12/15 10:59:59;;;;;;;39.40;32.83;;;;;;;;;;6186491;28;20230;-64
2021/12/15 11:03:23;;;;;;;45.60;36.57;;;;;;;;;;6186675;28;20325;-63
2021/12/15 11:06:44;;;;;;;39.93;35.63;;;;;;;;;;6190177;28;20616;-63
2021/12/15 11:10:08;;;;;;;40.63;34.40;;;;;;;;;;6187844;28;20309;-63
2021/12/15 11:13:33;;;;;;;42.27;35.27;;;;;;;;;;6188650;28;20325;-63
2021/12/15 11:17:09;;;;;;;41.90;34.90;;;;;;;;;;6193178;28;20260;-62
2021/12/15 11:20:32;;;;;;;42.83;34.17;;;;;;;;;;6194125;28;20564;-64
2021/12/15 11:23:55;;;;;;;44.20;35.07;;;;;;;;;;6192497;28;20234;-62
2021/12/15 11:27:17;;;;;;;42.03;34.57;;;;;;;;;;6179882;28;20227;-64
2021/12/15 11:30:44;;;;;;;44.90;35.63;;;;;;;;;;6188801;28;20241;-64
2021/12/15 11:34:06;;;;;;;44.30;37.83;;;;;;;;;;6188631;28;20222;-64
2021/12/15 11:37:49;;;;;;;38.73;32.43;;;;;;;;;;6186580;28;20268;-62
2021/12/15 11:41:18;;;;;;;46.10;35.87;;;;;;;;;;6192236;28;20233;-64
2021/12/15 11:44:43;;;;;;;51.67;36.67;;;;;;;;;;6183925;28;20237;-64
2021/12/15 11:48:17;;;;;;;43.67;35.13;;;;;;;;;;6185188;28;20226;-62
2021/12/15 11:51:41;;;;;;;43.20;33.87;;;;;;;;;;6191469;28;20320;-63
2021/12/15 11:55:02;;;;;;;44.80;32.90;;;;;;;;;;6183589;28;20515;-63
2021/12/15 11:58:33;;;;;;;40.17;34.57;;;;;;;;;;6189894;28;20506;-63
2021/12/15 12:02:01;;;;;;;44.80;34.03;;;;;;;;;;6186933;28;20308;-64
2021/12/15 12:05:27;;;;;;;43.67;35.33;;;;;;;;;;6190313;28;20229;-63
2021/12/15 12:08:51;;;;;;;38.23;32.70;;;;;;;;;;6185528;28;20317;-64
2021/12/15 12:12:15;;;;;;;40.90;33.67;;;;;;;;;;6168050;28;20518;-64
2021/12/15 12:15:40;;;;;;;39.73;32.57;;;;;;;;;;6193295;28;20222;-65
2021/12/15 12:19:01;;;;;;;42.60;34.03;;;;;;;;;;6191718;28;20241;-63
2021/12/15 12:22:26;;;;;;;38.83;33.90;;;;;;;;;;6185664;28;20230;-65
2021/12/15 12:25:49;;;;;;;40.93;35.83;;;;;;;;;;6185746;28;20234;-64
2021/12/15 12:29:11;;;;;;;43.10;34.73;;;;;;;;;;6187667;28;20616;-63
2021/12/15 12:32:32;;;;;;;40.03;32.03;;;;;;;;;;6188564;28;20234;-63
2021/12/15 12:35:55;;;;;;;38.63;33.93;;;;;;;;;;6198885;28;20237;-63
2021/12/15 12:39:21;;;;;;;38.87;31.23;;;;;;;;;;6185726;28;20230;-63
2021/12/15 12:42:42;;;;;;;37.30;31.20;;;;;;;;;;6189588;28;20316;-63
2021/12/15 12:46:11;;;;;;;38.13;30.77;;;;;;;;;;6193101;28;20560;-62
2021/12/15 13:01:08;;;;;;;33.73;28.60;;;;;;;;;;6172223;28;20230;-64
2021/12/15 13:04:41;;;;;;;37.90;29.40;;;;;;;;;;6158478;28;20268;-65
2021/12/15 13:08:03;;;;;;;33.93;28.43;;;;;;;;;;6185015;28;20323;-64
2021/12/15 13:11:34;;;;;;;35.37;29.37;;;;;;;;;;6187844;28;20230;-63
2021/12/15 13:14:58;;;;;;;32.73;26.73;;;;;;;;;;6184380;28;20225;-63
2021/12/15 13:18:19;;;;;;;34.13;28.43;;;;;;;;;;6183000;28;20242;-61
2021/12/15 13:21:49;;;;;;;37.33;27.40;;;;;;;;;;6182036;28;20599;-63
2021/12/15 13:29:20;;;;;;;40.40;27.00;;;;;;;;;;6180067;28;20250;-63
2021/12/15 13:32:48;;;;;;;35.53;27.67;;;;;;;;;;6184690;28;20257;-63
2021/12/15 13:36:10;;;;;;;33.13;26.53;;;;;;;;;;6187279;28;20228;-63
2021/12/15 13:39:43;;;;;;;35.83;29.50;;;;;;;;;;6156292;28;20242;-63
2021/12/15 13:43:04;;;;;;;31.83;27.07;;;;;;;;;;6178548;28;20234;-64
2021/12/15 13:46:33;;;;;;;31.23;27.83;;;;;;;;;;6183677;28;20225;-64
2021/12/15 13:49:57;;;;;;;32.60;26.57;;;;;;;;;;6181300;28;20225;-64
2021/12/15 13:53:32;;;;;;;32.03;25.90;;;;;;;;;;6187589;28;20257;-64
2021/12/15 13:56:55;;;;;;;29.20;25.67;;;;;;;;;;6177593;28;20287;-64
2021/12/15 14:00:24;;;;;;;34.27;28.10;;;;;;;;;;6183618;28;20229;-63
2021/12/15 14:03:47;;;;;;;47.63;27.53;;;;;;;;;;6179231;28;20232;-63
2021/12/15 14:07:34;;;;;;;33.57;27.13;;;;;;;;;;6178316;28;20237;-63
2021/12/15 14:11:00;;;;;;;32.17;26.03;;;;;;;;;;6186569;28;20533;-64
2021/12/15 14:14:22;;;;;;;29.60;24.90;;;;;;;;;;6188156;28;20645;-63
2021/12/15 14:17:43;;;;;;;31.07;25.87;;;;;;;;;;6188290;28;20660;-64
2021/12/15 14:21:11;;;;;;;29.20;26.03;;;;;;;;;;6184367;28;20238;-64
2021/12/15 14:24:34;;;;;;;28.53;24.43;;;;;;;;;;6187494;28;20245;-66
2021/12/15 14:27:55;;;;;;;24.97;22.33;;;;;;;;;;6162359;28;20612;-62
2021/12/15 14:31:19;;;;;;;27.20;21.93;;;;;;;;;;6183962;28;20659;-62
2021/12/15 14:34:42;;;;;;;24.00;20.37;;;;;;;;;;6186202;28;20237;-63
2021/12/15 14:38:03;;;;;;;23.10;18.40;;;;;;;;;;6177869;28;20601;-64
2021/12/15 14:41:28;;;;;;;21.83;18.07;;;;;;;;;;6184454;28;20257;-63
2021/12/15 14:44:51;;;;;;;18.03;15.70;;;;;;;;;;6179968;28;20328;-64
2021/12/15 14:48:19;;;;;;;20.60;18.30;;;;;;;;;;6178694;28;20250;-64
2021/12/15 14:51:43;;;;;;;20.93;17.50;;;;;;;;;;6185768;28;20320;-64
2021/12/15 14:55:13;;;;;;;18.50;16.20;;;;;;;;;;6184781;28;20221;-64
2021/12/15 14:58:36;;;;;;;20.60;17.17;;;;;;;;;;6182752;28;20312;-64
2021/12/15 15:02:01;;;;;;;18.67;14.23;;;;;;;;;;6177681;28;20308;-64
2021/12/15 15:05:26;;;;;;;16.87;15.07;;;;;;;;;;6174124;28;20246;-65
2021/12/15 15:08:46;;;;;;;19.10;14.37;;;;;;;;;;6188357;28;20270;-65
2021/12/15 15:12:10;;;;;;;18.30;15.80;;;;;;;;;;6171732;28;20634;-64
2021/12/15 15:15:37;;;;;;;17.03;14.20;;;;;;;;;;6174788;28;20238;-64
2021/12/15 15:19:05;;;;;;;22.23;17.00;;;;;;;;;;6186137;28;20234;-63
2021/12/15 15:22:28;;;;;;;20.17;16.93;;;;;;;;;;6192906;28;20229;-64
2021/12/15 15:25:53;;;;;;;21.03;17.23;;;;;;;;;;6188660;28;20438;-63
2021/12/15 15:29:14;;;;;;;21.93;16.90;;;;;;;;;;6199751;28;20229;-64
2021/12/15 15:32:37;;;;;;;17.23;15.43;;;;;;;;;;6194861;28;20334;-63
2021/12/15 15:36:00;;;;;;;19.20;15.90;;;;;;;;;;6194184;28;20523;-64
2021/12/15 15:39:21;;;;;;;20.23;16.10;;;;;;;;;;6191650;28;20643;-63
2021/12/15 15:42:43;;;;;;;19.07;16.20;;;;;;;;;;6190553;28;20230;-64
2021/12/15 15:46:07;;;;;;;18.60;16.10;;;;;;;;;;6194779;28;21208;-63
2021/12/15 15:49:29;;;;;;;20.03;17.47;;;;;;;;;;6190329;28;20230;-63
2021/12/15 15:52:52;;;;;;;16.63;14.83;;;;;;;;;;6195797;28;20615;-64
2021/12/15 15:56:14;;;;;;;18.00;14.53;;;;;;;;;;6200442;28;20234;-63
2021/12/15 15:59:39;;;;;;;23.37;19.60;;;;;;;;;;6193345;28;20234;-64
2021/12/15 16:03:00;;;;;;;19.27;15.57;;;;;;;;;;6186442;28;20276;-63
2021/12/15 16:06:24;;;;;;;16.60;14.77;;;;;;;;;;6199885;28;20537;-64
2021/12/15 16:09:48;;;;;;;14.27;12.60;;;;;;;;;;6187667;28;20230;-63
2021/12/15 16:13:12;;;;;;;19.30;15.10;;;;;;;;;;6193046;28;20493;-64
2021/12/15 16:16:39;;;;;;;15.80;14.13;;;;;;;;;;6190054;28;20222;-64
2021/12/15 16:20:14;;;;;;;19.27;14.77;;;;;;;;;;6186416;28;20241;-64
2021/12/15 16:23:38;;;;;;;18.23;14.87;;;;;;;;;;6169398;28;20718;-63
2021/12/15 16:26:59;;;;;;;17.13;14.73;;;;;;;;;;6174942;28;20221;-63
2021/12/15 16:30:24;;;;;;;17.00;14.03;;;;;;;;;;6187555;28;20617;-64
2021/12/15 16:33:48;;;;;;;19.10;15.80;;;;;;;;;;6185001;28;20677;-64
2021/12/15 16:37:11;;;;;;;20.90;14.87;;;;;;;;;;6440202;23;20316;-65
2021/12/15 16:40:34;;;;;;;18.23;16.03;;;;;;;;;;6212592;28;20593;-65
2021/12/15 16:43:59;;;;;;;17.60;15.73;;;;;;;;;;6233572;28;20236;-64
2021/12/15 16:47:26;;;;;;;22.93;18.30;;;;;;;;;;6241772;28;20630;-64
2021/12/15 16:50:51;;;;;;;19.47;15.93;;;;;;;;;;6242348;28;20625;-63
2021/12/15 16:54:14;;;;;;;18.03;15.73;;;;;;;;;;6233758;28;20232;-64
2021/12/15 16:57:40;;;;;;;24.50;17.27;;;;;;;;;;6239986;28;20224;-63
2021/12/15 17:01:04;;;;;;;21.50;15.83;;;;;;;;;;6232805;28;20310;-63
2021/12/15 17:04:28;;;;;;;16.30;14.60;;;;;;;;;;6226934;28;20236;-64
2021/12/15 17:07:50;;;;;;;20.70;17.90;;;;;;;;;;6228632;28;20228;-63
2021/12/15 17:11:15;;;;;;;19.07;16.87;;;;;;;;;;6231757;28;20625;-64
2021/12/15 17:14:47;;;;;;;20.13;17.43;;;;;;;;;;6240082;28;20244;-63
2021/12/15 17:18:17;;;;;;;21.23;18.83;;;;;;;;;;6231314;28;20224;-64
2021/12/15 17:21:38;;;;;;;20.03;17.87;;;;;;;;;;6226699;28;20236;-64
2021/12/15 17:25:10;;;;;;;22.13;17.00;;;;;;;;;;6238018;28;20233;-63
2021/12/15 17:28:33;;;;;;;20.17;17.60;;;;;;;;;;6233999;28;20311;-64
2021/12/15 17:31:59;;;;;;;18.80;16.40;;;;;;;;;;6233314;28;20224;-63
2021/12/15 17:35:20;;;;;;;17.50;15.43;;;;;;;;;;6234511;28;20700;-64
2021/12/15 17:38:47;;;;;;;17.43;14.63;;;;;;;;;;6229044;28;20240;-63
2021/12/15 17:42:11;;;;;;;19.60;14.53;;;;;;;;;;6226131;28;20232;-63
2021/12/15 17:45:32;;;;;;;17.40;15.50;;;;;;;;;;6226895;28;20252;-63
2021/12/15 17:49:06;;;;;;;19.83;16.03;;;;;;;;;;6232066;28;20232;-63
2021/12/15 17:52:28;;;;;;;18.20;16.30;;;;;;;;;;6230767;28;20663;-63
2021/12/15 17:55:51;;;;;;;19.90;17.80;;;;;;;;;;6234629;28;20602;-63
2021/12/15 17:59:12;;;;;;;16.67;14.93;;;;;;;;;;6229830;28;20323;-64
2021/12/15 18:02:33;;;;;;;17.73;14.63;;;;;;;;;;6235231;28;20259;-64
2021/12/15 18:05:58;;;;;;;16.70;15.00;;;;;;;;;;6233595;28;20224;-64
2021/12/15 18:09:24;;;;;;;18.07;15.33;;;;;;;;;;6232760;28;20232;-65
2021/12/15 18:12:46;;;;;;;16.70;14.93;;;;;;;;;;6232845;28;20311;-64
2021/12/15 18:16:07;;;;;;;15.70;12.47;;;;;;;;;;6236938;28;20237;-62
2021/12/15 18:19:28;;;;;;;14.83;13.37;;;;;;;;;;6236079;28;20220;-65
2021/12/15 18:22:50;;;;;;;11.37;10.17;;;;;;;;;;6221844;28;20244;-63
2021/12/15 18:26:16;;;;;;;12.30;11.00;;;;;;;;;;6234246;28;20494;-63
2021/12/15 18:29:39;;;;;;;11.00;8.90;;;;;;;;;;6233470;28;20243;-64
2021/12/15 18:33:00;;;;;;;10.17;6.83;;;;;;;;;;6236219;28;20225;-64
2021/12/15 18:36:20;;;;;;;11.67;7.40;;;;;;;;;;6235461;28;20614;-62
2021/12/15 18:39:45;;;;;;;9.93;7.40;;;;;;;;;;6240160;28;20986;-63
2021/12/15 18:43:07;;;;;;;7.23;6.27;;;;;;;;;;6235567;28;20543;-63
2021/12/15 18:46:30;;;;;;;9.53;6.60;;;;;;;;;;6227367;28;20224;-64
2021/12/15 18:49:55;;;;;;;7.47;5.77;;;;;;;;;;6237979;28;20244;-63
2021/12/15 18:53:17;;;;;;;6.90;6.00;;;;;;;;;;6241271;28;20251;-64
2021/12/15 18:56:40;;;;;;;8.93;7.57;;;;;;;;;;6229452;28;20228;-64
2021/12/15 19:00:02;;;;;;;8.70;6.20;;;;;;;;;;6234543;28;20256;-63
2021/12/15 19:03:23;;;;;;;7.23;6.53;;;;;;;;;;6230125;28;20241;-63
2021/12/15 19:06:45;;;;;;;5.13;4.67;;;;;;;;;;6231001;28;20232;-64
2021/12/15 19:10:09;;;;;;;7.03;4.70;;;;;;;;;;6238214;28;20236;-64
2021/12/15 19:13:31;;;;;;;5.40;4.90;;;;;;;;;;6231636;28;20593;-64
2021/12/15 19:16:54;;;;;;;6.43;5.40;;;;;;;;;;6236172;28;20240;-63
2021/12/15 19:20:18;;;;;;;6.30;4.60;;;;;;;;;;6232871;28;20228;-65
2021/12/15 19:23:40;;;;;;;5.70;5.20;;;;;;;;;;6233236;28;20237;-65
2021/12/15 19:27:01;;;;;;;5.07;4.27;;;;;;;;;;6233831;28;20327;-63
2021/12/15 19:30:29;;;;;;;6.93;4.70;;;;;;;;;;6238772;28;20335;-64
2021/12/15 19:33:51;;;;;;;5.57;5.03;;;;;;;;;;6245288;28;20223;-63
2021/12/15 19:37:12;;;;;;;7.23;5.73;;;;;;;;;;6241943;28;20236;-63
2021/12/15 19:40:34;;;;;;;5.70;5.20;;;;;;;;;;6241201;28;20217;-62
2021/12/15 19:43:55;;;;;;;5.83;4.60;;;;;;;;;;6240346;28;20224;-62
2021/12/15 19:47:17;;;;;;;5.20;4.73;;;;;;;;;;6225527;28;20228;-63
2021/12/15 19:50:41;;;;;;;5.50;5.07;;;;;;;;;;6242926;28;20224;-62
2021/12/15 19:54:03;;;;;;;12.27;6.63;;;;;;;;;;6239761;28;20233;-63
2021/12/15 19:57:24;;;;;;;7.27;5.17;;;;;;;;;;6234992;28;20264;-63
2021/12/15 20:00:49;;;;;;;5.90;5.40;;;;;;;;;;6236186;28;20245;-63
2021/12/15 20:04:12;;;;;;;6.60;5.87;;;;;;;;;;6236562;28;20501;-62
2021/12/15 20:07:33;;;;;;;6.10;5.50;;;;;;;;;;6239183;28;20224;-62
2021/12/15 20:10:54;;;;;;;6.93;5.90;;;;;;;;;;6239381;28;20688;-61
2021/12/15 20:14:17;;;;;;;6.33;5.83;;;;;;;;;;6240831;28;20602;-63
2021/12/15 20:17:39;;;;;;;6.83;6.17;;;;;;;;;;6243703;28;20727;-63
2021/12/15 20:21:02;;;;;;;7.03;6.33;;;;;;;;;;6233471;28;20241;-62
2021/12/15 20:24:26;;;;;;;6.63;6.03;;;;;;;;;;6235897;28;20239;-61
2021/12/15 20:27:47;;;;;;;8.77;6.70;;;;;;;;;;6238551;28;20220;-63
2021/12/15 20:31:12;;;;;;;7.70;6.97;;;;;;;;;;6239081;28;20244;-63
2021/12/15 20:34:33;;;;;;;6.80;5.77;;;;;;;;;;6237502;28;20225;-61
2021/12/15 20:37:56;;;;;;;7.77;5.63;;;;;;;;;;6236590;28;20224;-64
2021/12/15 20:41:18;;;;;;;6.50;5.37;;;;;;;;;;6238111;28;20266;-64
2021/12/15 20:44:39;;;;;;;9.50;5.97;;;;;;;;;;6227032;28;20237;-64
2021/12/15 20:48:00;;;;;;;5.10;4.47;;;;;;;;;;6240081;28;20252;-63
2021/12/15 20:51:22;;;;;;;8.47;4.17;;;;;;;;;;6240875;28;20232;-63
2021/12/15 20:54:44;;;;;;;7.77;5.33;;;;;;;;;;6237983;28;20308;-62
2021/12/15 20:58:06;;;;;;;5.67;5.07;;;;;;;;;;6241820;28;20225;-63
2021/12/15 21:01:27;;;;;;;4.87;4.17;;;;;;;;;;6228190;28;20240;-63
2021/12/15 21:04:51;;;;;;;7.73;4.83;;;;;;;;;;6243015;28;20225;-63
2021/12/15 21:08:12;;;;;;;6.60;4.20;;;;;;;;;;6238142;28;20876;-63
2021/12/15 21:11:35;;;;;;;5.93;5.30;;;;;;;;;;6234642;28;20238;-62